createdAt,value
2022-09-30T00:01:40.997Z,89.33
2022-09-30T00:04:14.435Z,89.74
2022-09-30T00:06:42.754Z,89.07
2022-09-30T00:09:11.439Z,89.84
2022-09-30T00:11:40.317Z,90.09
2022-09-30T00:14:14.981Z,89.64
2022-09-30T00:16:43.700Z,90.63
2022-09-30T00:19:12.778Z,90.25
2022-09-30T00:21:41.375Z,89.50
2022-09-30T00:24:10.021Z,89.69
2022-09-30T00:26:38.382Z,89.82
2022-09-30T00:29:07.006Z,90.74
2022-09-30T00:31:37.654Z,90.52
2022-09-30T00:34:09.102Z,90.28
2022-09-30T00:36:43.561Z,89.62
2022-09-30T00:39:14.936Z,90.14
2022-09-30T00:41:43.677Z,89.89
2022-09-30T00:44:52.598Z,89.81
2022-09-30T00:47:43.441Z,89.98
2022-09-30T00:50:26.180Z,89.59
2022-09-30T00:53:01.873Z,90.22
2022-09-30T00:55:48.313Z,89.42
2022-09-30T00:58:25.232Z,89.53
2022-09-30T01:00:53.493Z,90.30
2022-09-30T01:03:24.401Z,89.73
2022-09-30T01:05:53.357Z,90.33
2022-09-30T01:08:23.312Z,90.71
2022-09-30T01:10:51.575Z,90.48
2022-09-30T01:13:22.405Z,91.28
2022-09-30T01:16:07.703Z,90.18
2022-09-30T01:18:54.522Z,90.54
2022-09-30T01:22:00.098Z,91.17
2022-09-30T01:25:11.468Z,90.96
2022-09-30T01:28:10.834Z,91.23
2022-09-30T01:30:57.329Z,91.44
2022-09-30T01:33:40.727Z,90.94
2022-09-30T01:36:26.266Z,91.25
2022-09-30T01:39:08.328Z,90.37
2022-09-30T01:41:46.201Z,89.69
2022-09-30T01:44:19.136Z,90.12
2022-09-30T01:46:55.266Z,90.44
2022-09-30T01:49:33.608Z,91.52
2022-09-30T01:52:08.479Z,91.21
2022-09-30T01:54:43.650Z,90.50
2022-09-30T01:57:20.242Z,90.84
2022-09-30T01:59:53.958Z,90.51
2022-09-30T02:02:27.611Z,89.72
2022-09-30T02:05:01.162Z,90.35
2022-09-30T02:07:35.212Z,90.90
2022-09-30T02:10:10.513Z,90.86
2022-09-30T02:12:48.089Z,90.05
2022-09-30T02:15:23.142Z,89.97
2022-09-30T02:17:58.295Z,91.42
2022-09-30T02:20:29.471Z,91.13
2022-09-30T02:23:05.874Z,90.76
2022-09-30T02:25:39.906Z,90.95
2022-09-30T02:28:13.711Z,90.51
2022-09-30T02:30:46.989Z,90.72
2022-09-30T02:33:22.842Z,90.66
2022-09-30T02:35:57.602Z,90.20
2022-09-30T02:38:36.976Z,90.32
2022-09-30T02:41:10.446Z,90.76
2022-09-30T02:43:42.053Z,91.31
2022-09-30T02:46:19.976Z,91.58
2022-09-30T02:48:58.273Z,91.26
2022-09-30T02:51:36.793Z,91.09
2022-09-30T02:54:17.670Z,91.75
2022-09-30T02:56:53.253Z,91.04
2022-09-30T02:59:22.339Z,91.07
2022-09-30T03:01:50.742Z,90.97
2022-09-30T03:04:26.265Z,90.59
2022-09-30T03:06:55.456Z,90.86
2022-09-30T03:09:27.071Z,91.15
2022-09-30T03:12:04.308Z,91.19
2022-09-30T03:14:52.717Z,91.03
2022-09-30T03:17:39.703Z,90.48
2022-09-30T03:20:30.189Z,91.20
2022-09-30T03:23:21.323Z,91.17
2022-09-30T03:26:01.194Z,91.43
2022-09-30T03:28:34.565Z,91.03
2022-09-30T03:31:11.525Z,90.95
2022-09-30T03:33:50.516Z,90.26
2022-09-30T03:36:29.422Z,90.50
2022-09-30T03:39:06.863Z,90.65
2022-09-30T03:41:41.846Z,91.13
2022-09-30T03:44:17.926Z,89.96
2022-09-30T03:46:51.741Z,90.42
2022-09-30T03:49:24.606Z,90.59
2022-09-30T03:51:58.534Z,90.19
2022-09-30T03:54:27.764Z,90.50
2022-09-30T03:56:55.878Z,90.01
2022-09-30T03:59:28.557Z,89.97
2022-09-30T04:01:57.610Z,89.90
2022-09-30T04:04:25.989Z,90.32
2022-09-30T04:06:55.487Z,90.63
2022-09-30T04:09:24.508Z,89.97
2022-09-30T04:11:52.905Z,89.57
2022-09-30T04:14:20.991Z,89.85
2022-09-30T04:16:53.192Z,90.00
2022-09-30T04:19:22.565Z,89.66
2022-09-30T04:21:53.831Z,89.59
2022-09-30T04:24:24.639Z,89.86
2022-09-30T04:26:53.146Z,89.71
2022-09-30T04:29:21.297Z,89.65
2022-09-30T04:31:49.463Z,89.97
2022-09-30T04:34:17.658Z,89.96
2022-09-30T04:36:45.945Z,90.20
2022-09-30T04:39:14.153Z,89.48
2022-09-30T04:41:43.733Z,90.27
2022-09-30T04:44:13.156Z,89.71
2022-09-30T04:46:41.436Z,89.91
2022-09-30T04:49:09.750Z,89.98
2022-09-30T04:51:43.824Z,90.11
2022-09-30T04:54:11.941Z,90.03
2022-09-30T04:56:40.184Z,89.95
2022-09-30T04:59:09.802Z,89.26
2022-09-30T05:01:39.269Z,89.76
2022-09-30T05:04:08.207Z,90.00
2022-09-30T05:06:36.355Z,90.25
2022-09-30T05:09:04.768Z,90.21
2022-09-30T05:11:32.973Z,89.76
2022-09-30T05:14:01.407Z,89.69
2022-09-30T05:16:30.939Z,89.98
2022-09-30T05:18:59.110Z,90.01
2022-09-30T05:21:27.291Z,90.05
2022-09-30T05:23:55.645Z,90.01
2022-09-30T05:26:23.776Z,89.79
2022-09-30T05:28:51.934Z,90.56
2022-09-30T05:31:20.887Z,91.00
2022-09-30T05:33:53.551Z,91.10
2022-09-30T05:36:25.505Z,90.86
2022-09-30T05:38:54.241Z,91.00
2022-09-30T05:41:23.011Z,90.70
2022-09-30T05:43:51.764Z,91.50
2022-09-30T05:46:21.583Z,91.32
2022-09-30T05:48:54.744Z,92.12
2022-09-30T05:51:23.165Z,92.20
2022-09-30T05:53:54.002Z,91.82
2022-09-30T05:56:22.304Z,91.67
2022-09-30T05:58:50.981Z,92.31
2022-09-30T06:01:19.252Z,91.92
2022-09-30T06:03:47.876Z,92.48
2022-09-30T06:06:19.119Z,92.43
2022-09-30T06:08:47.806Z,92.19
2022-09-30T06:11:18.742Z,92.59
2022-09-30T06:13:49.197Z,92.24
2022-09-30T06:16:19.045Z,92.23
2022-09-30T06:18:47.741Z,92.47
2022-09-30T06:21:19.423Z,93.05
2022-09-30T06:23:47.731Z,92.34
2022-09-30T06:26:16.430Z,92.44
2022-09-30T06:28:45.240Z,93.34
2022-09-30T06:31:13.610Z,92.52
2022-09-30T06:33:42.529Z,93.52
2022-09-30T06:36:10.840Z,93.31
2022-09-30T06:38:40.535Z,92.98
2022-09-30T06:41:09.732Z,93.29
2022-09-30T06:43:41.354Z,93.45
2022-09-30T06:46:17.645Z,93.23
2022-09-30T06:48:48.601Z,93.98
2022-09-30T06:51:17.021Z,93.20
2022-09-30T06:53:49.010Z,94.00
2022-09-30T06:56:21.213Z,93.10
2022-09-30T06:58:49.491Z,93.63
2022-09-30T07:01:17.620Z,93.79
2022-09-30T07:03:51.433Z,94.27
2022-09-30T07:06:22.170Z,93.62
2022-09-30T07:08:51.653Z,93.75
2022-09-30T07:11:19.745Z,93.41
2022-09-30T07:13:49.600Z,93.33
2022-09-30T07:16:21.230Z,93.42
2022-09-30T07:18:49.597Z,93.13
2022-09-30T07:21:17.768Z,93.60
2022-09-30T07:23:47.704Z,93.95
2022-09-30T07:26:19.714Z,93.75
2022-09-30T07:28:48.271Z,93.91
2022-09-30T07:31:32.373Z,93.52
2022-09-30T07:34:01.551Z,94.10
2022-09-30T07:36:33.579Z,94.02
2022-09-30T07:39:06.783Z,93.10
2022-09-30T07:41:40.084Z,93.48
2022-09-30T07:44:13.177Z,94.10
2022-09-30T07:46:42.364Z,94.24
2022-09-30T07:49:16.673Z,94.10
2022-09-30T07:51:45.610Z,94.20
2022-09-30T07:54:16.594Z,94.00
2022-09-30T07:59:37.494Z,94.25
2022-09-30T08:02:06.793Z,93.95
2022-09-30T08:04:35.993Z,94.31
2022-09-30T08:07:06.123Z,93.91
2022-09-30T08:09:34.927Z,94.14
2022-09-30T08:12:05.817Z,93.78
2022-09-30T08:14:34.032Z,93.86
2022-09-30T08:17:02.515Z,93.67
2022-09-30T08:19:33.668Z,93.52
2022-09-30T08:24:31.385Z,93.61
2022-09-30T08:27:00.045Z,93.53
2022-09-30T08:29:53.224Z,93.26
2022-09-30T08:32:18.237Z,93.07
2022-09-30T08:34:46.359Z,93.09
2022-09-30T08:37:14.415Z,93.00
2022-09-30T08:39:43.464Z,93.11
2022-09-30T08:42:37.286Z,92.63
2022-09-30T08:45:21.573Z,93.25
2022-09-30T08:48:00.313Z,92.65
2022-09-30T08:50:39.466Z,92.62
2022-09-30T08:53:18.946Z,93.06
2022-09-30T08:55:47.711Z,92.85
2022-09-30T08:58:25.097Z,92.31
2022-09-30T09:01:01.041Z,92.50
2022-09-30T09:03:31.791Z,92.04
2022-09-30T09:06:22.106Z,92.23
2022-09-30T09:09:12.758Z,92.41
2022-09-30T09:11:56.031Z,92.04
2022-09-30T09:14:39.286Z,92.43
2022-09-30T09:17:26.042Z,91.83
2022-09-30T09:20:03.112Z,92.16
2022-09-30T09:22:33.138Z,92.13
2022-09-30T09:25:03.278Z,91.85
2022-09-30T09:27:46.362Z,91.24
2022-09-30T09:30:17.416Z,90.94
2022-09-30T09:32:53.391Z,91.22
2022-09-30T09:35:37.982Z,90.73
2022-09-30T09:38:26.874Z,91.05
2022-09-30T09:41:11.014Z,90.86
2022-09-30T09:44:00.354Z,90.21
2022-09-30T09:46:32.335Z,90.32
2022-09-30T09:49:35.083Z,90.04
2022-09-30T09:52:49.130Z,89.71
2022-09-30T09:55:22.839Z,89.41
2022-09-30T09:58:07.576Z,89.45
2022-09-30T10:00:58.968Z,88.49
2022-09-30T10:03:28.671Z,88.61
2022-09-30T10:06:09.043Z,88.17
2022-09-30T10:08:39.706Z,88.46
2022-09-30T10:11:19.301Z,87.67
2022-09-30T10:13:47.826Z,87.40
2022-09-30T10:16:32.494Z,86.96
2022-09-30T10:19:03.132Z,86.75
2022-09-30T10:21:35.561Z,85.87
2022-09-30T10:24:24.663Z,85.12
2022-09-30T10:26:52.810Z,84.53
2022-09-30T10:29:29.954Z,83.93
2022-09-30T10:32:00.458Z,83.02
2022-09-30T10:34:31.758Z,82.38
2022-09-30T10:37:09.253Z,81.81
2022-09-30T10:39:40.175Z,81.12
2022-09-30T10:42:17.432Z,80.55
2022-09-30T10:44:50.391Z,80.00
2022-09-30T10:47:21.842Z,78.99
2022-09-30T10:49:52.955Z,78.41
2022-09-30T10:52:25.861Z,77.63
2022-09-30T10:54:56.607Z,77.16
2022-09-30T10:57:28.832Z,76.50
2022-09-30T11:00:01.614Z,75.57
2022-09-30T11:02:35.558Z,75.05
2022-09-30T11:05:13.602Z,74.28
2022-09-30T11:07:48.021Z,73.69
2022-09-30T11:10:32.853Z,73.57
2022-09-30T11:13:08.667Z,72.41
2022-09-30T11:15:46.919Z,72.35
2022-09-30T11:18:25.038Z,71.62
2022-09-30T11:20:58.440Z,70.75
2022-09-30T11:23:33.884Z,70.66
2022-09-30T11:26:09.135Z,70.37
2022-09-30T11:28:55.105Z,69.89
2022-09-30T11:31:32.593Z,69.36
2022-09-30T11:34:20.072Z,68.79
2022-09-30T11:36:59.889Z,68.73
2022-09-30T11:39:59.231Z,68.34
2022-09-30T11:42:37.592Z,67.62
2022-09-30T11:45:23.437Z,66.99
2022-09-30T11:48:13.526Z,66.22
2022-09-30T11:50:55.990Z,65.44
2022-09-30T11:53:39.943Z,64.92
2022-09-30T11:56:27.253Z,65.01
2022-09-30T11:59:00.321Z,64.16
2022-09-30T12:01:33.614Z,62.74
2022-09-30T12:04:09.016Z,60.38
2022-09-30T12:06:41.882Z,59.93
2022-09-30T12:09:19.609Z,59.79
2022-09-30T12:11:57.004Z,57.77
2022-09-30T12:14:32.995Z,55.85
2022-09-30T12:17:04.539Z,55.78
2022-09-30T12:19:37.770Z,54.37
2022-09-30T12:22:13.054Z,54.66
2022-09-30T12:24:45.595Z,54.41
2022-09-30T12:27:23.677Z,54.22
2022-09-30T12:30:17.553Z,53.48
2022-09-30T12:33:22.211Z,53.03
2022-09-30T12:36:40.005Z,52.85
2022-09-30T12:39:52.807Z,52.38
2022-09-30T12:42:43.932Z,51.51
2022-09-30T12:46:04.602Z,49.68
2022-09-30T12:48:39.302Z,48.71
2022-09-30T12:51:08.498Z,48.10
2022-09-30T12:53:40.074Z,48.15
2022-09-30T12:56:11.100Z,48.57
2022-09-30T12:58:53.088Z,48.16
2022-09-30T13:01:25.760Z,46.69
2022-09-30T13:04:18.487Z,45.63
2022-09-30T13:07:14.160Z,44.74
2022-09-30T13:10:26.112Z,43.33
2022-09-30T13:13:24.602Z,44.81
2022-09-30T13:15:56.226Z,45.49
2022-09-30T13:19:03.124Z,46.22
2022-09-30T13:21:33.725Z,46.92
2022-09-30T13:24:02.200Z,47.24
2022-09-30T13:26:43.095Z,46.37
2022-09-30T13:29:38.338Z,47.08
2022-09-30T13:32:10.528Z,47.51
2022-09-30T13:34:58.810Z,47.97
2022-09-30T13:37:39.489Z,48.24
2022-09-30T13:40:32.928Z,48.76
2022-09-30T13:43:16.584Z,48.37
2022-09-30T13:45:47.037Z,47.98
2022-09-30T13:48:20.482Z,47.48
2022-09-30T13:50:52.648Z,47.48
2022-09-30T13:53:31.083Z,47.94
2022-09-30T13:56:02.555Z,48.81
2022-09-30T13:59:19.268Z,48.80
2022-09-30T14:02:10.102Z,48.80
2022-09-30T14:05:08.695Z,48.88
2022-09-30T14:07:51.418Z,48.78
2022-09-30T14:10:40.076Z,48.68
2022-09-30T14:13:25.858Z,48.61
2022-09-30T14:16:14.008Z,48.74
2022-09-30T14:19:13.430Z,48.86
2022-09-30T14:21:48.155Z,49.33
2022-09-30T14:24:23.961Z,49.23
2022-09-30T14:27:19.425Z,49.52
2022-09-30T14:30:01.452Z,49.74
2022-09-30T14:32:32.804Z,50.02
2022-09-30T14:35:06.225Z,50.05
2022-09-30T14:37:40.730Z,50.04
2022-09-30T14:40:14.009Z,50.39
2022-09-30T14:42:44.310Z,50.38
2022-09-30T14:45:22.238Z,50.38
2022-09-30T14:47:52.918Z,50.35
2022-09-30T14:50:26.014Z,50.77
2022-09-30T14:52:58.776Z,50.72
2022-09-30T14:55:31.662Z,50.64
2022-09-30T14:58:28.429Z,50.46
2022-09-30T15:01:07.059Z,50.94
2022-09-30T15:03:38.026Z,50.88
2022-09-30T15:06:08.215Z,51.33
2022-09-30T15:08:37.735Z,51.19
2022-09-30T15:11:06.364Z,50.89
2022-09-30T15:13:36.047Z,51.26
2022-09-30T15:16:04.246Z,51.17
2022-09-30T15:18:36.433Z,51.37
2022-09-30T15:21:12.098Z,51.70
2022-09-30T15:23:46.878Z,51.58
2022-09-30T15:26:16.185Z,52.44
2022-09-30T15:28:44.419Z,52.10
2022-09-30T15:31:23.663Z,50.50
2022-09-30T15:34:06.832Z,49.17
2022-09-30T15:36:37.171Z,47.63
2022-09-30T15:39:13.864Z,47.26
2022-09-30T15:41:42.430Z,46.31
2022-09-30T15:44:19.973Z,45.74
2022-09-30T15:47:04.334Z,46.10
2022-09-30T15:49:36.262Z,46.72
2022-09-30T15:52:39.000Z,47.30
2022-09-30T15:55:42.252Z,47.47
2022-09-30T15:58:37.911Z,48.07
2022-09-30T16:01:19.570Z,48.05
2022-09-30T16:03:54.196Z,48.50
2022-09-30T16:06:27.612Z,49.79
2022-09-30T16:09:02.218Z,50.51
2022-09-30T16:11:36.679Z,51.32
2022-09-30T16:14:10.119Z,52.54
2022-09-30T16:16:40.066Z,52.96
2022-09-30T16:19:16.902Z,53.93
2022-09-30T16:21:50.916Z,54.38
2022-09-30T16:24:50.200Z,54.89
2022-09-30T16:27:32.601Z,55.20
2022-09-30T16:30:01.610Z,55.97
2022-09-30T16:32:33.902Z,56.35
2022-09-30T16:35:02.295Z,56.87
2022-09-30T16:37:30.881Z,57.31
2022-09-30T16:40:17.115Z,57.75
2022-09-30T16:42:46.778Z,58.00
2022-09-30T16:45:16.085Z,58.27
2022-09-30T16:47:44.826Z,58.58
2022-09-30T16:50:25.014Z,59.39
2022-09-30T16:52:53.100Z,60.03
2022-09-30T16:55:21.415Z,60.18
2022-09-30T16:57:51.004Z,60.38
2022-09-30T17:00:19.793Z,60.89
2022-09-30T17:02:50.287Z,60.87
2022-09-30T17:05:20.737Z,61.09
2022-09-30T17:07:53.332Z,61.45
2022-09-30T17:10:25.624Z,61.30
2022-09-30T17:12:55.227Z,61.62
2022-09-30T17:15:24.135Z,62.41
2022-09-30T17:17:52.746Z,62.55
2022-09-30T17:20:21.285Z,63.13
2022-09-30T17:22:50.202Z,63.00
2022-09-30T17:25:20.301Z,63.39
2022-09-30T17:27:50.182Z,63.98
2022-09-30T17:30:20.391Z,64.14
2022-09-30T17:32:48.881Z,64.36
2022-09-30T17:35:17.535Z,64.32
2022-09-30T17:37:46.685Z,65.07
2022-09-30T17:40:32.738Z,65.09
2022-09-30T17:43:11.019Z,65.26
2022-09-30T17:45:43.283Z,65.90
2022-09-30T17:48:13.487Z,66.16
2022-09-30T17:50:45.206Z,66.29
2022-09-30T17:53:16.814Z,67.31
2022-09-30T17:55:47.376Z,66.93
2022-09-30T17:58:16.778Z,67.60
2022-09-30T18:00:47.486Z,67.60
2022-09-30T18:03:15.657Z,67.84
2022-09-30T18:05:45.445Z,67.63
2022-09-30T18:08:13.777Z,68.37
2022-09-30T18:10:41.873Z,68.19
2022-09-30T18:13:11.466Z,68.94
2022-09-30T18:15:40.394Z,68.69
2022-09-30T18:18:09.770Z,69.04
2022-09-30T18:20:38.300Z,68.84
2022-09-30T18:23:06.472Z,69.13
2022-09-30T18:25:34.708Z,69.96
2022-09-30T18:28:03.949Z,69.54
2022-09-30T18:30:32.150Z,70.20
2022-09-30T18:33:00.273Z,70.06
2022-09-30T18:35:30.189Z,70.25
2022-09-30T18:37:58.606Z,70.77
2022-09-30T18:40:28.332Z,70.33
2022-09-30T18:42:59.333Z,71.20
2022-09-30T18:45:28.450Z,71.10
2022-09-30T18:47:58.807Z,71.10
2022-09-30T18:50:30.491Z,71.16
2022-09-30T18:53:02.089Z,71.93
2022-09-30T18:55:32.227Z,72.07
2022-09-30T18:58:00.356Z,71.70
2022-09-30T19:00:31.208Z,72.19
2022-09-30T19:02:59.505Z,72.43
2022-09-30T19:05:29.974Z,72.18
2022-09-30T19:07:58.079Z,72.70
2022-09-30T19:10:26.356Z,71.99
2022-09-30T19:12:54.458Z,72.10
2022-09-30T19:15:23.535Z,72.19
2022-09-30T19:17:53.072Z,72.40
2022-09-30T19:20:21.696Z,72.76
2022-09-30T19:22:52.275Z,72.47
2022-09-30T19:25:20.685Z,72.70
2022-09-30T19:27:49.528Z,72.53
2022-09-30T19:30:17.757Z,72.93
2022-09-30T19:32:46.300Z,72.70
2022-09-30T19:35:14.735Z,72.98
2022-09-30T19:37:55.002Z,73.08
2022-09-30T19:43:06.856Z,72.52
2022-09-30T19:45:35.175Z,72.73
2022-09-30T19:48:03.327Z,72.40
2022-09-30T19:50:31.418Z,72.94
2022-09-30T19:52:59.998Z,72.49
2022-09-30T19:55:30.252Z,72.14
2022-09-30T19:57:59.333Z,72.96
2022-09-30T20:00:27.442Z,73.16
2022-09-30T20:02:56.206Z,72.60
2022-09-30T20:05:24.353Z,73.18
2022-09-30T20:07:53.416Z,73.16
2022-09-30T20:10:21.553Z,72.59
2022-09-30T20:12:51.139Z,72.95
2022-09-30T20:15:37.354Z,72.76
2022-09-30T20:18:05.877Z,73.15
2022-09-30T20:20:38.422Z,73.19
2022-09-30T20:23:06.555Z,72.41
2022-09-30T20:25:36.345Z,72.93
2022-09-30T20:28:06.961Z,72.96
2022-09-30T20:30:42.806Z,72.42
2022-09-30T20:33:10.919Z,72.45
2022-09-30T20:35:39.136Z,72.93
2022-09-30T20:38:10.883Z,73.20
2022-09-30T20:40:40.005Z,73.13
2022-09-30T20:43:10.237Z,72.82
2022-09-30T20:45:41.374Z,72.38
2022-09-30T20:48:09.741Z,72.53
2022-09-30T20:50:43.394Z,72.48
2022-09-30T20:53:14.627Z,72.85
2022-09-30T20:55:44.563Z,73.02
2022-09-30T20:58:14.606Z,72.20
2022-09-30T21:00:44.255Z,72.69
2022-09-30T21:03:14.777Z,72.81
2022-09-30T21:05:52.977Z,72.26
2022-09-30T21:08:21.220Z,72.56
2022-09-30T21:10:49.306Z,72.63
2022-09-30T21:13:19.050Z,72.37
2022-09-30T21:15:47.267Z,72.71
2022-09-30T21:18:15.493Z,72.06
2022-09-30T21:20:43.600Z,71.71
2022-09-30T21:23:12.781Z,72.03
2022-09-30T21:25:43.284Z,71.57
2022-09-30T21:28:11.390Z,72.16
2022-09-30T21:30:42.224Z,71.87
2022-09-30T21:33:10.288Z,71.65
2022-09-30T21:35:38.472Z,71.62
2022-09-30T21:38:06.676Z,70.98
2022-09-30T21:40:34.861Z,71.11
2022-09-30T21:43:04.409Z,70.68
2022-09-30T21:45:32.581Z,70.76
2022-09-30T21:48:07.350Z,70.12
2022-09-30T21:50:36.174Z,70.35
2022-09-30T21:53:04.616Z,69.83
2022-09-30T21:55:33.414Z,69.95
2022-09-30T21:58:01.512Z,69.19
2022-09-30T22:00:29.685Z,68.88
2022-09-30T22:02:58.804Z,69.13
2022-09-30T22:05:28.304Z,68.67
2022-09-30T22:07:59.444Z,68.42
2022-09-30T22:10:27.794Z,68.81
2022-09-30T22:12:55.950Z,68.65
2022-09-30T22:15:24.140Z,67.98
2022-09-30T22:17:52.507Z,67.92
2022-09-30T22:20:21.381Z,68.40
2022-09-30T22:22:50.870Z,68.22
2022-09-30T22:25:20.372Z,67.58
2022-09-30T22:27:48.505Z,67.72
2022-09-30T22:30:16.850Z,67.83
2022-09-30T22:32:45.002Z,67.37
2022-09-30T22:35:30.938Z,67.53
2022-09-30T22:38:18.253Z,67.09
2022-09-30T22:40:46.500Z,67.39
2022-09-30T22:43:15.264Z,67.14
2022-09-30T22:45:43.879Z,67.22
2022-09-30T22:48:12.028Z,67.17
2022-09-30T22:50:40.453Z,67.13
2022-09-30T22:53:09.969Z,67.05
2022-09-30T22:55:38.193Z,67.85
2022-09-30T22:58:06.328Z,67.94
2022-09-30T23:00:34.413Z,68.79
2022-09-30T23:03:03.549Z,69.33
2022-09-30T23:05:39.199Z,69.58
2022-09-30T23:08:07.319Z,71.15
2022-09-30T23:10:38.448Z,71.50
2022-09-30T23:13:08.863Z,72.46
2022-09-30T23:15:36.962Z,72.97
2022-09-30T23:18:05.142Z,73.92
2022-09-30T23:20:33.237Z,74.71
2022-09-30T23:23:01.342Z,74.94
2022-09-30T23:25:29.489Z,75.52
2022-09-30T23:27:59.153Z,76.24
2022-09-30T23:30:27.841Z,77.03
2022-09-30T23:32:55.861Z,77.45
2022-09-30T23:35:24.058Z,77.63
2022-09-30T23:37:52.926Z,78.14
2022-09-30T23:40:21.025Z,78.58
2022-09-30T23:42:50.439Z,79.08
2022-09-30T23:45:19.897Z,79.74
2022-09-30T23:47:49.252Z,80.05
2022-09-30T23:50:17.466Z,79.88
2022-09-30T23:52:45.628Z,80.11
2022-09-30T23:55:13.720Z,80.62
2022-09-30T23:57:42.157Z,80.81
